sensor_id;sensor_type;location;lat;lon;timestamp;temperature;humidity
5055;DHT22;13829;48.990;8.346;2022-08-02T00:01:53;20.50;99.90
5055;DHT22;13829;48.990;8.346;2022-08-02T00:04:20;20.40;99.90
5055;DHT22;13829;48.990;8.346;2022-08-02T00:06:49;20.30;99.90
5055;DHT22;13829;48.990;8.346;2022-08-02T00:09:16;20.20;99.90
5055;DHT22;13829;48.990;8.346;2022-08-02T00:11:43;20.10;99.90
5055;DHT22;13829;48.990;8.346;2022-08-02T00:14:10;20.00;99.90
5055;DHT22;13829;48.990;8.346;2022-08-02T00:16:37;20.00;99.90
5055;DHT22;13829;48.990;8.346;2022-08-02T00:19:04;20.00;99.90
5055;DHT22;13829;48.990;8.346;2022-08-02T00:21:31;19.90;99.90
5055;DHT22;13829;48.990;8.346;2022-08-02T00:23:59;20.10;99.90
5055;DHT22;13829;48.990;8.346;2022-08-02T00:26:26;20.00;99.90
5055;DHT22;13829;48.990;8.346;2022-08-02T00:28:53;19.90;99.90
5055;DHT22;13829;48.990;8.346;2022-08-02T00:31:20;19.90;99.90
5055;DHT22;13829;48.990;8.346;2022-08-02T00:33:47;19.90;99.90
5055;DHT22;13829;48.990;8.346;2022-08-02T00:36:15;19.80;99.90
5055;DHT22;13829;48.990;8.346;2022-08-02T00:38:43;19.80;99.90
5055;DHT22;13829;48.990;8.346;2022-08-02T00:41:13;19.80;99.90
5055;DHT22;13829;48.990;8.346;2022-08-02T00:43:42;19.70;99.90
5055;DHT22;13829;48.990;8.346;2022-08-02T00:46:10;19.70;99.90
5055;DHT22;13829;48.990;8.346;2022-08-02T00:48:37;19.50;99.90
5055;DHT22;13829;48.990;8.346;2022-08-02T00:51:04;19.60;99.90
5055;DHT22;13829;48.990;8.346;2022-08-02T00:53:31;19.60;99.90
5055;DHT22;13829;48.990;8.346;2022-08-02T00:55:59;19.50;99.90
5055;DHT22;13829;48.990;8.346;2022-08-02T00:58:27;19.50;99.90
5055;DHT22;13829;48.990;8.346;2022-08-02T01:00:55;19.50;99.90
5055;DHT22;13829;48.990;8.346;2022-08-02T01:03:25;19.40;99.90
5055;DHT22;13829;48.990;8.346;2022-08-02T01:05:52;19.40;99.90
5055;DHT22;13829;48.990;8.346;2022-08-02T01:08:19;19.30;99.90
5055;DHT22;13829;48.990;8.346;2022-08-02T01:10:46;19.40;99.90
5055;DHT22;13829;48.990;8.346;2022-08-02T01:13:12;19.30;99.90
5055;DHT22;13829;48.990;8.346;2022-08-02T01:15:46;19.30;99.90
5055;DHT22;13829;48.990;8.346;2022-08-02T01:18:21;19.50;99.90
5055;DHT22;13829;48.990;8.346;2022-08-02T01:21:05;19.30;99.90
5055;DHT22;13829;48.990;8.346;2022-08-02T01:23:53;19.30;99.90
5055;DHT22;13829;48.990;8.346;2022-08-02T01:26:38;19.30;99.90
5055;DHT22;13829;48.990;8.346;2022-08-02T01:29:12;19.30;99.90
5055;DHT22;13829;48.990;8.346;2022-08-02T01:31:48;19.30;99.90
5055;DHT22;13829;48.990;8.346;2022-08-02T01:34:23;19.30;99.90
5055;DHT22;13829;48.990;8.346;2022-08-02T01:37:00;19.30;99.90
5055;DHT22;13829;48.990;8.346;2022-08-02T01:39:33;19.30;99.90
5055;DHT22;13829;48.990;8.346;2022-08-02T01:42:04;19.30;99.90
5055;DHT22;13829;48.990;8.346;2022-08-02T01:44:35;19.30;99.90
5055;DHT22;13829;48.990;8.346;2022-08-02T01:47:09;19.30;99.90
5055;DHT22;13829;48.990;8.346;2022-08-02T01:49:44;19.20;99.90
5055;DHT22;13829;48.990;8.346;2022-08-02T01:52:14;19.10;99.90
5055;DHT22;13829;48.990;8.346;2022-08-02T01:54:55;19.20;99.90
5055;DHT22;13829;48.990;8.346;2022-08-02T01:57:36;19.20;99.90
5055;DHT22;13829;48.990;8.346;2022-08-02T02:00:09;19.30;99.90
5055;DHT22;13829;48.990;8.346;2022-08-02T02:02:41;19.20;99.90
5055;DHT22;13829;48.990;8.346;2022-08-02T02:05:12;19.10;99.90
5055;DHT22;13829;48.990;8.346;2022-08-02T02:07:42;19.10;99.90
5055;DHT22;13829;48.990;8.346;2022-08-02T02:10:14;19.00;99.90
5055;DHT22;13829;48.990;8.346;2022-08-02T02:12:43;19.10;99.90
5055;DHT22;13829;48.990;8.346;2022-08-02T02:15:15;19.00;99.90
5055;DHT22;13829;48.990;8.346;2022-08-02T02:17:45;18.90;99.90
5055;DHT22;13829;48.990;8.346;2022-08-02T02:20:17;18.80;99.90
5055;DHT22;13829;48.990;8.346;2022-08-02T02:22:47;18.60;99.90
5055;DHT22;13829;48.990;8.346;2022-08-02T02:25:16;18.60;99.90
5055;DHT22;13829;48.990;8.346;2022-08-02T02:27:51;18.50;99.90
5055;DHT22;13829;48.990;8.346;2022-08-02T02:30:25;18.60;99.90
5055;DHT22;13829;48.990;8.346;2022-08-02T02:32:56;18.40;99.90
5055;DHT22;13829;48.990;8.346;2022-08-02T02:35:28;18.40;99.90
5055;DHT22;13829;48.990;8.346;2022-08-02T02:38:00;18.40;99.90
5055;DHT22;13829;48.990;8.346;2022-08-02T02:40:29;18.40;99.90
5055;DHT22;13829;48.990;8.346;2022-08-02T02:42:59;18.40;99.90
5055;DHT22;13829;48.990;8.346;2022-08-02T02:45:29;18.50;99.90
5055;DHT22;13829;48.990;8.346;2022-08-02T02:47:59;18.50;99.90
5055;DHT22;13829;48.990;8.346;2022-08-02T02:50:29;18.50;99.90
5055;DHT22;13829;48.990;8.346;2022-08-02T02:52:56;18.60;99.90
5055;DHT22;13829;48.990;8.346;2022-08-02T02:55:24;18.50;99.90
5055;DHT22;13829;48.990;8.346;2022-08-02T02:57:54;18.60;99.90
5055;DHT22;13829;48.990;8.346;2022-08-02T03:00:23;18.60;99.90
5055;DHT22;13829;48.990;8.346;2022-08-02T03:03:06;18.60;99.90
5055;DHT22;13829;48.990;8.346;2022-08-02T03:05:35;18.70;99.90
5055;DHT22;13829;48.990;8.346;2022-08-02T03:08:02;18.70;99.90
5055;DHT22;13829;48.990;8.346;2022-08-02T03:10:31;18.80;99.90
5055;DHT22;13829;48.990;8.346;2022-08-02T03:13:00;18.90;99.90
5055;DHT22;13829;48.990;8.346;2022-08-02T03:15:27;19.00;99.90
5055;DHT22;13829;48.990;8.346;2022-08-02T03:17:56;19.00;99.90
5055;DHT22;13829;48.990;8.346;2022-08-02T03:20:24;19.10;99.90
5055;DHT22;13829;48.990;8.346;2022-08-02T03:22:51;19.10;99.90
5055;DHT22;13829;48.990;8.346;2022-08-02T03:25:18;19.10;99.90
5055;DHT22;13829;48.990;8.346;2022-08-02T03:27:45;19.10;99.90
5055;DHT22;13829;48.990;8.346;2022-08-02T03:30:13;19.10;99.90
5055;DHT22;13829;48.990;8.346;2022-08-02T03:32:43;19.20;99.90
5055;DHT22;13829;48.990;8.346;2022-08-02T03:35:14;19.30;99.90
5055;DHT22;13829;48.990;8.346;2022-08-02T03:37:46;19.20;99.90
5055;DHT22;13829;48.990;8.346;2022-08-02T03:40:14;19.10;99.90
5055;DHT22;13829;48.990;8.346;2022-08-02T03:42:42;19.10;99.90
5055;DHT22;13829;48.990;8.346;2022-08-02T03:45:11;18.90;99.90
5055;DHT22;13829;48.990;8.346;2022-08-02T03:47:39;18.90;99.90
5055;DHT22;13829;48.990;8.346;2022-08-02T03:50:10;18.80;99.90
5055;DHT22;13829;48.990;8.346;2022-08-02T03:52:38;18.80;99.90
5055;DHT22;13829;48.990;8.346;2022-08-02T03:55:09;18.70;99.90
5055;DHT22;13829;48.990;8.346;2022-08-02T03:57:37;18.90;99.90
5055;DHT22;13829;48.990;8.346;2022-08-02T04:00:06;18.80;99.90
5055;DHT22;13829;48.990;8.346;2022-08-02T04:02:34;18.60;99.90
5055;DHT22;13829;48.990;8.346;2022-08-02T04:05:02;18.60;99.90
5055;DHT22;13829;48.990;8.346;2022-08-02T04:07:29;18.60;99.90
5055;DHT22;13829;48.990;8.346;2022-08-02T04:09:57;18.60;99.90
5055;DHT22;13829;48.990;8.346;2022-08-02T04:12:25;18.60;99.90
5055;DHT22;13829;48.990;8.346;2022-08-02T04:14:52;18.70;99.90
5055;DHT22;13829;48.990;8.346;2022-08-02T04:17:20;18.70;99.90
5055;DHT22;13829;48.990;8.346;2022-08-02T04:19:54;18.70;99.90
5055;DHT22;13829;48.990;8.346;2022-08-02T04:22:28;18.70;99.90
5055;DHT22;13829;48.990;8.346;2022-08-02T04:25:02;18.70;99.90
5055;DHT22;13829;48.990;8.346;2022-08-02T04:27:33;18.70;99.90
5055;DHT22;13829;48.990;8.346;2022-08-02T04:30:04;18.80;99.90
5055;DHT22;13829;48.990;8.346;2022-08-02T04:32:32;18.90;99.90
5055;DHT22;13829;48.990;8.346;2022-08-02T04:35:00;19.00;99.90
5055;DHT22;13829;48.990;8.346;2022-08-02T04:37:28;19.10;99.90
5055;DHT22;13829;48.990;8.346;2022-08-02T04:39:55;19.00;99.90
5055;DHT22;13829;48.990;8.346;2022-08-02T04:42:23;19.20;99.90
5055;DHT22;13829;48.990;8.346;2022-08-02T04:44:53;19.30;99.90
5055;DHT22;13829;48.990;8.346;2022-08-02T04:47:20;19.30;99.90
5055;DHT22;13829;48.990;8.346;2022-08-02T04:49:48;19.40;99.90
5055;DHT22;13829;48.990;8.346;2022-08-02T04:52:15;19.50;99.90
5055;DHT22;13829;48.990;8.346;2022-08-02T04:54:42;19.60;99.90
5055;DHT22;13829;48.990;8.346;2022-08-02T04:57:08;19.70;99.90
5055;DHT22;13829;48.990;8.346;2022-08-02T04:59:49;19.70;99.90
5055;DHT22;13829;48.990;8.346;2022-08-02T05:02:18;19.80;99.90
5055;DHT22;13829;48.990;8.346;2022-08-02T05:04:45;20.00;99.90
5055;DHT22;13829;48.990;8.346;2022-08-02T05:07:12;20.10;99.90
5055;DHT22;13829;48.990;8.346;2022-08-02T05:09:39;20.10;99.90
5055;DHT22;13829;48.990;8.346;2022-08-02T05:12:06;20.10;99.90
5055;DHT22;13829;48.990;8.346;2022-08-02T05:14:34;20.20;99.90
5055;DHT22;13829;48.990;8.346;2022-08-02T05:17:01;20.20;99.90
5055;DHT22;13829;48.990;8.346;2022-08-02T05:19:29;20.30;99.90
5055;DHT22;13829;48.990;8.346;2022-08-02T05:21:56;20.40;99.90
5055;DHT22;13829;48.990;8.346;2022-08-02T05:24:23;20.40;99.90
5055;DHT22;13829;48.990;8.346;2022-08-02T05:26:50;20.60;99.90
5055;DHT22;13829;48.990;8.346;2022-08-02T05:29:17;20.70;99.90
5055;DHT22;13829;48.990;8.346;2022-08-02T05:31:44;20.80;99.90
5055;DHT22;13829;48.990;8.346;2022-08-02T05:34:11;20.90;99.90
5055;DHT22;13829;48.990;8.346;2022-08-02T05:36:40;21.00;99.90
5055;DHT22;13829;48.990;8.346;2022-08-02T05:39:07;21.20;99.90
5055;DHT22;13829;48.990;8.346;2022-08-02T05:41:34;21.20;99.90
5055;DHT22;13829;48.990;8.346;2022-08-02T05:44:02;21.30;99.90
5055;DHT22;13829;48.990;8.346;2022-08-02T05:46:29;21.40;99.90
5055;DHT22;13829;48.990;8.346;2022-08-02T05:48:56;21.50;99.90
5055;DHT22;13829;48.990;8.346;2022-08-02T05:51:33;21.60;99.90
5055;DHT22;13829;48.990;8.346;2022-08-02T05:54:10;21.70;99.90
5055;DHT22;13829;48.990;8.346;2022-08-02T05:56:47;21.70;99.90
5055;DHT22;13829;48.990;8.346;2022-08-02T05:59:25;21.70;99.90
5055;DHT22;13829;48.990;8.346;2022-08-02T06:02:01;21.70;99.90
5055;DHT22;13829;48.990;8.346;2022-08-02T06:04:33;21.70;99.90
5055;DHT22;13829;48.990;8.346;2022-08-02T06:07:13;21.80;99.90
5055;DHT22;13829;48.990;8.346;2022-08-02T06:09:48;21.90;99.90
5055;DHT22;13829;48.990;8.346;2022-08-02T06:12:16;21.90;99.90
5055;DHT22;13829;48.990;8.346;2022-08-02T06:14:46;22.10;99.90
5055;DHT22;13829;48.990;8.346;2022-08-02T06:17:15;22.20;99.90
5055;DHT22;13829;48.990;8.346;2022-08-02T06:19:45;22.30;99.90
5055;DHT22;13829;48.990;8.346;2022-08-02T06:22:13;22.20;99.90
5055;DHT22;13829;48.990;8.346;2022-08-02T06:24:42;22.20;99.90
5055;DHT22;13829;48.990;8.346;2022-08-02T06:27:13;22.20;99.90
5055;DHT22;13829;48.990;8.346;2022-08-02T06:29:42;22.30;99.90
5055;DHT22;13829;48.990;8.346;2022-08-02T06:32:12;22.40;99.90
5055;DHT22;13829;48.990;8.346;2022-08-02T06:34:43;22.70;99.90
5055;DHT22;13829;48.990;8.346;2022-08-02T06:37:13;22.60;99.90
5055;DHT22;13829;48.990;8.346;2022-08-02T06:39:48;22.70;99.90
5055;DHT22;13829;48.990;8.346;2022-08-02T06:42:20;22.80;99.90
5055;DHT22;13829;48.990;8.346;2022-08-02T06:44:51;23.00;99.90
5055;DHT22;13829;48.990;8.346;2022-08-02T06:47:18;23.10;99.90
5055;DHT22;13829;48.990;8.346;2022-08-02T06:49:46;23.20;99.90
5055;DHT22;13829;48.990;8.346;2022-08-02T06:52:12;23.30;99.90
5055;DHT22;13829;48.990;8.346;2022-08-02T06:54:39;23.60;99.90
5055;DHT22;13829;48.990;8.346;2022-08-02T06:57:06;23.80;99.90
5055;DHT22;13829;48.990;8.346;2022-08-02T06:59:35;24.00;99.90
5055;DHT22;13829;48.990;8.346;2022-08-02T07:02:03;24.10;99.90
5055;DHT22;13829;48.990;8.346;2022-08-02T07:04:30;24.60;99.90
5055;DHT22;13829;48.990;8.346;2022-08-02T07:06:58;25.60;99.20
5055;DHT22;13829;48.990;8.346;2022-08-02T07:09:25;26.80;97.00
5055;DHT22;13829;48.990;8.346;2022-08-02T07:11:52;28.00;92.80
5055;DHT22;13829;48.990;8.346;2022-08-02T07:14:20;28.70;90.80
5055;DHT22;13829;48.990;8.346;2022-08-02T07:16:48;29.70;87.20
5055;DHT22;13829;48.990;8.346;2022-08-02T07:19:15;30.70;85.20
5055;DHT22;13829;48.990;8.346;2022-08-02T07:21:42;31.50;82.00
5055;DHT22;13829;48.990;8.346;2022-08-02T07:24:09;32.50;78.30
5055;DHT22;13829;48.990;8.346;2022-08-02T07:26:36;33.60;73.00
5055;DHT22;13829;48.990;8.346;2022-08-02T07:29:03;33.60;70.30
5055;DHT22;13829;48.990;8.346;2022-08-02T07:31:30;33.50;69.40
5055;DHT22;13829;48.990;8.346;2022-08-02T07:33:58;33.80;68.40
5055;DHT22;13829;48.990;8.346;2022-08-02T07:36:25;35.00;66.60
5055;DHT22;13829;48.990;8.346;2022-08-02T07:38:52;35.00;64.40
5055;DHT22;13829;48.990;8.346;2022-08-02T07:41:19;35.60;66.30
5055;DHT22;13829;48.990;8.346;2022-08-02T07:43:46;36.60;63.40
5055;DHT22;13829;48.990;8.346;2022-08-02T07:46:13;36.60;61.00
5055;DHT22;13829;48.990;8.346;2022-08-02T07:48:40;36.60;60.80
5055;DHT22;13829;48.990;8.346;2022-08-02T07:51:08;36.60;59.80
5055;DHT22;13829;48.990;8.346;2022-08-02T07:53:35;35.70;59.00
5055;DHT22;13829;48.990;8.346;2022-08-02T07:56:02;35.30;59.90
5055;DHT22;13829;48.990;8.346;2022-08-02T07:58:30;35.30;61.70
5055;DHT22;13829;48.990;8.346;2022-08-02T08:00:57;36.60;60.00
5055;DHT22;13829;48.990;8.346;2022-08-02T08:03:24;36.80;58.00
5055;DHT22;13829;48.990;8.346;2022-08-02T08:05:51;37.20;56.90
5055;DHT22;13829;48.990;8.346;2022-08-02T08:08:20;36.40;56.80
5055;DHT22;13829;48.990;8.346;2022-08-02T08:10:47;36.20;56.70
5055;DHT22;13829;48.990;8.346;2022-08-02T08:13:14;35.30;57.20
5055;DHT22;13829;48.990;8.346;2022-08-02T08:15:42;35.80;59.10
5055;DHT22;13829;48.990;8.346;2022-08-02T08:18:09;36.20;57.30
5055;DHT22;13829;48.990;8.346;2022-08-02T08:20:36;35.70;57.50
5055;DHT22;13829;48.990;8.346;2022-08-02T08:23:04;36.30;57.60
5055;DHT22;13829;48.990;8.346;2022-08-02T08:25:32;37.40;55.60
5055;DHT22;13829;48.990;8.346;2022-08-02T08:27:59;36.90;55.20
5055;DHT22;13829;48.990;8.346;2022-08-02T08:30:26;36.50;55.30
5055;DHT22;13829;48.990;8.346;2022-08-02T08:32:53;36.20;56.30
5055;DHT22;13829;48.990;8.346;2022-08-02T08:35:20;36.00;55.00
5055;DHT22;13829;48.990;8.346;2022-08-02T08:37:47;36.10;55.70
5055;DHT22;13829;48.990;8.346;2022-08-02T08:40:14;35.50;56.00
5055;DHT22;13829;48.990;8.346;2022-08-02T08:42:44;35.00;56.40
5055;DHT22;13829;48.990;8.346;2022-08-02T08:45:10;34.80;59.40
5055;DHT22;13829;48.990;8.346;2022-08-02T08:47:39;35.10;60.30
5055;DHT22;13829;48.990;8.346;2022-08-02T08:50:09;34.70;58.50
5055;DHT22;13829;48.990;8.346;2022-08-02T08:52:41;34.30;58.50
5055;DHT22;13829;48.990;8.346;2022-08-02T08:55:13;34.10;58.90
5055;DHT22;13829;48.990;8.346;2022-08-02T08:57:43;34.00;59.70
5055;DHT22;13829;48.990;8.346;2022-08-02T09:00:12;34.60;59.80
5055;DHT22;13829;48.990;8.346;2022-08-02T09:02:41;34.00;57.60
5055;DHT22;13829;48.990;8.346;2022-08-02T09:05:10;33.70;58.30
5055;DHT22;13829;48.990;8.346;2022-08-02T09:07:39;34.00;61.30
5055;DHT22;13829;48.990;8.346;2022-08-02T09:10:31;33.30;59.00
5055;DHT22;13829;48.990;8.346;2022-08-02T09:13:13;32.90;59.10
5055;DHT22;13829;48.990;8.346;2022-08-02T09:15:43;32.50;59.10
5055;DHT22;13829;48.990;8.346;2022-08-02T09:18:12;32.40;60.00
5055;DHT22;13829;48.990;8.346;2022-08-02T09:20:54;32.10;60.40
5055;DHT22;13829;48.990;8.346;2022-08-02T09:23:23;32.50;62.70
5055;DHT22;13829;48.990;8.346;2022-08-02T09:25:56;32.10;61.50
5055;DHT22;13829;48.990;8.346;2022-08-02T09:28:29;32.20;62.50
5055;DHT22;13829;48.990;8.346;2022-08-02T09:31:03;31.90;60.30
5055;DHT22;13829;48.990;8.346;2022-08-02T09:33:32;31.90;63.40
5055;DHT22;13829;48.990;8.346;2022-08-02T09:36:01;31.70;60.90
5055;DHT22;13829;48.990;8.346;2022-08-02T09:38:30;31.70;62.30
5055;DHT22;13829;48.990;8.346;2022-08-02T09:40:59;31.40;61.90
5055;DHT22;13829;48.990;8.346;2022-08-02T09:43:39;31.30;62.60
5055;DHT22;13829;48.990;8.346;2022-08-02T09:46:12;31.00;64.20
5055;DHT22;13829;48.990;8.346;2022-08-02T09:48:48;31.00;63.40
5055;DHT22;13829;48.990;8.346;2022-08-02T09:51:19;30.90;63.20
5055;DHT22;13829;48.990;8.346;2022-08-02T09:53:51;30.60;64.00
5055;DHT22;13829;48.990;8.346;2022-08-02T09:56:20;30.60;64.90
5055;DHT22;13829;48.990;8.346;2022-08-02T09:58:50;30.60;64.30
5055;DHT22;13829;48.990;8.346;2022-08-02T10:01:19;30.30;64.00
5055;DHT22;13829;48.990;8.346;2022-08-02T10:03:54;30.20;64.40
5055;DHT22;13829;48.990;8.346;2022-08-02T10:06:23;30.00;64.40
5055;DHT22;13829;48.990;8.346;2022-08-02T10:08:50;29.60;65.10
5055;DHT22;13829;48.990;8.346;2022-08-02T10:11:19;29.30;65.40
5055;DHT22;13829;48.990;8.346;2022-08-02T10:13:49;29.40;67.80
5055;DHT22;13829;48.990;8.346;2022-08-02T10:16:18;29.40;67.80
5055;DHT22;13829;48.990;8.346;2022-08-02T10:18:48;29.60;67.70
5055;DHT22;13829;48.990;8.346;2022-08-02T10:21:21;29.60;67.00
5055;DHT22;13829;48.990;8.346;2022-08-02T10:23:57;29.70;65.70
5055;DHT22;13829;48.990;8.346;2022-08-02T10:26:31;29.50;66.40
5055;DHT22;13829;48.990;8.346;2022-08-02T10:29:01;29.40;67.20
5055;DHT22;13829;48.990;8.346;2022-08-02T10:31:33;29.20;67.70
5055;DHT22;13829;48.990;8.346;2022-08-02T10:34:07;29.20;68.10
5055;DHT22;13829;48.990;8.346;2022-08-02T10:36:39;29.00;67.60
5055;DHT22;13829;48.990;8.346;2022-08-02T10:39:08;29.00;67.70
5055;DHT22;13829;48.990;8.346;2022-08-02T10:41:47;29.00;68.10
5055;DHT22;13829;48.990;8.346;2022-08-02T10:44:28;28.90;67.30
5055;DHT22;13829;48.990;8.346;2022-08-02T10:47:19;28.90;67.60
5055;DHT22;13829;48.990;8.346;2022-08-02T10:49:52;28.80;67.70
5055;DHT22;13829;48.990;8.346;2022-08-02T10:52:20;28.70;68.50
5055;DHT22;13829;48.990;8.346;2022-08-02T10:54:50;28.80;67.30
5055;DHT22;13829;48.990;8.346;2022-08-02T10:57:23;28.50;69.00
5055;DHT22;13829;48.990;8.346;2022-08-02T10:59:55;28.30;69.20
5055;DHT22;13829;48.990;8.346;2022-08-02T11:02:38;28.20;69.70
5055;DHT22;13829;48.990;8.346;2022-08-02T11:05:13;28.10;70.10
5055;DHT22;13829;48.990;8.346;2022-08-02T11:07:44;28.10;68.90
5055;DHT22;13829;48.990;8.346;2022-08-02T11:10:33;28.20;69.00
5055;DHT22;13829;48.990;8.346;2022-08-02T11:13:07;28.40;69.60
5055;DHT22;13829;48.990;8.346;2022-08-02T11:16:02;28.60;68.20
5055;DHT22;13829;48.990;8.346;2022-08-02T11:21:32;28.50;68.80
5055;DHT22;13829;48.990;8.346;2022-08-02T11:24:23;28.60;68.20
5055;DHT22;13829;48.990;8.346;2022-08-02T11:26:53;28.50;68.50
5055;DHT22;13829;48.990;8.346;2022-08-02T11:29:21;28.40;69.50
5055;DHT22;13829;48.990;8.346;2022-08-02T11:31:49;28.40;67.80
5055;DHT22;13829;48.990;8.346;2022-08-02T11:34:16;28.20;68.90
5055;DHT22;13829;48.990;8.346;2022-08-02T11:36:45;28.10;68.90
5055;DHT22;13829;48.990;8.346;2022-08-02T11:39:15;28.20;68.50
5055;DHT22;13829;48.990;8.346;2022-08-02T11:41:47;28.30;68.20
5055;DHT22;13829;48.990;8.346;2022-08-02T11:44:16;28.40;68.50
5055;DHT22;13829;48.990;8.346;2022-08-02T11:46:43;28.40;68.00
5055;DHT22;13829;48.990;8.346;2022-08-02T11:49:14;28.40;67.60
5055;DHT22;13829;48.990;8.346;2022-08-02T11:51:56;28.40;68.60
5055;DHT22;13829;48.990;8.346;2022-08-02T11:54:30;28.40;68.80
5055;DHT22;13829;48.990;8.346;2022-08-02T11:57:09;28.50;69.00
5055;DHT22;13829;48.990;8.346;2022-08-02T11:59:39;28.60;68.40
5055;DHT22;13829;48.990;8.346;2022-08-02T12:02:08;28.60;68.40
5055;DHT22;13829;48.990;8.346;2022-08-02T12:04:37;28.70;68.00
5055;DHT22;13829;48.990;8.346;2022-08-02T12:07:05;28.70;67.80
5055;DHT22;13829;48.990;8.346;2022-08-02T12:09:35;28.60;67.90
5055;DHT22;13829;48.990;8.346;2022-08-02T12:12:03;28.40;67.60
5055;DHT22;13829;48.990;8.346;2022-08-02T12:14:32;28.50;68.90
5055;DHT22;13829;48.990;8.346;2022-08-02T12:17:08;28.50;67.00
5055;DHT22;13829;48.990;8.346;2022-08-02T12:19:54;28.60;67.40
5055;DHT22;13829;48.990;8.346;2022-08-02T12:22:24;28.60;66.10
5055;DHT22;13829;48.990;8.346;2022-08-02T12:24:53;28.60;65.50
5055;DHT22;13829;48.990;8.346;2022-08-02T12:27:29;28.50;66.40
5055;DHT22;13829;48.990;8.346;2022-08-02T12:29:59;28.50;65.90
5055;DHT22;13829;48.990;8.346;2022-08-02T12:32:29;28.50;67.90
5055;DHT22;13829;48.990;8.346;2022-08-02T12:35:03;28.50;67.10
5055;DHT22;13829;48.990;8.346;2022-08-02T12:37:33;28.50;68.50
5055;DHT22;13829;48.990;8.346;2022-08-02T12:40:16;28.60;68.30
5055;DHT22;13829;48.990;8.346;2022-08-02T12:42:48;28.70;66.70
5055;DHT22;13829;48.990;8.346;2022-08-02T12:45:16;28.70;66.70
5055;DHT22;13829;48.990;8.346;2022-08-02T12:47:45;28.70;66.90
5055;DHT22;13829;48.990;8.346;2022-08-02T12:50:17;28.70;66.10
5055;DHT22;13829;48.990;8.346;2022-08-02T12:52:46;28.70;64.50
5055;DHT22;13829;48.990;8.346;2022-08-02T12:55:15;28.70;64.60
5055;DHT22;13829;48.990;8.346;2022-08-02T12:57:51;28.70;66.20
5055;DHT22;13829;48.990;8.346;2022-08-02T13:00:26;28.70;66.30
5055;DHT22;13829;48.990;8.346;2022-08-02T13:02:54;28.70;64.70
5055;DHT22;13829;48.990;8.346;2022-08-02T13:05:23;28.60;65.60
5055;DHT22;13829;48.990;8.346;2022-08-02T13:07:51;28.70;66.50
5055;DHT22;13829;48.990;8.346;2022-08-02T13:10:19;28.80;65.30
5055;DHT22;13829;48.990;8.346;2022-08-02T13:12:47;28.90;65.70
5055;DHT22;13829;48.990;8.346;2022-08-02T13:15:15;29.00;65.40
5055;DHT22;13829;48.990;8.346;2022-08-02T13:17:43;29.10;65.00
5055;DHT22;13829;48.990;8.346;2022-08-02T13:20:10;29.10;63.70
5055;DHT22;13829;48.990;8.346;2022-08-02T13:22:40;29.10;64.20
5055;DHT22;13829;48.990;8.346;2022-08-02T13:25:08;29.10;64.50
5055;DHT22;13829;48.990;8.346;2022-08-02T13:27:35;29.20;64.80
5055;DHT22;13829;48.990;8.346;2022-08-02T13:30:04;29.30;62.60
5055;DHT22;13829;48.990;8.346;2022-08-02T13:32:32;29.30;63.50
5055;DHT22;13829;48.990;8.346;2022-08-02T13:34:59;29.30;62.00
5055;DHT22;13829;48.990;8.346;2022-08-02T13:37:26;29.20;61.40
5055;DHT22;13829;48.990;8.346;2022-08-02T13:39:54;29.20;61.70
5055;DHT22;13829;48.990;8.346;2022-08-02T13:42:21;29.10;62.00
5055;DHT22;13829;48.990;8.346;2022-08-02T13:44:48;29.10;63.50
5055;DHT22;13829;48.990;8.346;2022-08-02T13:47:16;29.10;63.10
5055;DHT22;13829;48.990;8.346;2022-08-02T13:49:43;29.20;63.20
5055;DHT22;13829;48.990;8.346;2022-08-02T13:52:10;29.20;62.70
5055;DHT22;13829;48.990;8.346;2022-08-02T13:54:38;29.10;63.50
5055;DHT22;13829;48.990;8.346;2022-08-02T13:57:06;29.10;61.60
5055;DHT22;13829;48.990;8.346;2022-08-02T13:59:33;29.20;61.20
5055;DHT22;13829;48.990;8.346;2022-08-02T14:02:00;29.00;61.60
5055;DHT22;13829;48.990;8.346;2022-08-02T14:04:28;29.10;63.60
5055;DHT22;13829;48.990;8.346;2022-08-02T14:06:55;29.10;63.40
5055;DHT22;13829;48.990;8.346;2022-08-02T14:09:23;29.20;63.60
5055;DHT22;13829;48.990;8.346;2022-08-02T14:11:50;29.20;63.70
5055;DHT22;13829;48.990;8.346;2022-08-02T14:14:19;29.20;61.30
5055;DHT22;13829;48.990;8.346;2022-08-02T14:16:46;29.20;59.90
5055;DHT22;13829;48.990;8.346;2022-08-02T14:19:13;29.10;60.90
5055;DHT22;13829;48.990;8.346;2022-08-02T14:21:40;29.10;60.90
5055;DHT22;13829;48.990;8.346;2022-08-02T14:24:07;29.00;60.50
5055;DHT22;13829;48.990;8.346;2022-08-02T14:26:34;29.00;61.20
5055;DHT22;13829;48.990;8.346;2022-08-02T14:29:02;29.10;62.10
5055;DHT22;13829;48.990;8.346;2022-08-02T14:31:31;29.20;61.50
5055;DHT22;13829;48.990;8.346;2022-08-02T14:33:58;29.20;60.50
5055;DHT22;13829;48.990;8.346;2022-08-02T14:36:25;29.20;60.90
5055;DHT22;13829;48.990;8.346;2022-08-02T14:38:52;29.20;61.80
5055;DHT22;13829;48.990;8.346;2022-08-02T14:41:19;29.30;63.40
5055;DHT22;13829;48.990;8.346;2022-08-02T14:43:46;29.40;61.10
5055;DHT22;13829;48.990;8.346;2022-08-02T14:46:36;29.40;61.50
5055;DHT22;13829;48.990;8.346;2022-08-02T14:49:05;29.50;60.80
5055;DHT22;13829;48.990;8.346;2022-08-02T14:51:34;29.50;62.80
5055;DHT22;13829;48.990;8.346;2022-08-02T14:54:04;29.70;61.10
5055;DHT22;13829;48.990;8.346;2022-08-02T14:56:32;29.60;59.30
5055;DHT22;13829;48.990;8.346;2022-08-02T14:58:59;29.60;60.10
5055;DHT22;13829;48.990;8.346;2022-08-02T15:01:27;29.50;59.90
5055;DHT22;13829;48.990;8.346;2022-08-02T15:03:55;29.60;58.60
5055;DHT22;13829;48.990;8.346;2022-08-02T15:06:22;29.50;59.70
5055;DHT22;13829;48.990;8.346;2022-08-02T15:08:52;29.50;59.60
5055;DHT22;13829;48.990;8.346;2022-08-02T15:11:19;29.60;58.90
5055;DHT22;13829;48.990;8.346;2022-08-02T15:13:46;29.50;60.20
5055;DHT22;13829;48.990;8.346;2022-08-02T15:16:13;29.40;60.60
5055;DHT22;13829;48.990;8.346;2022-08-02T15:18:40;29.40;59.70
5055;DHT22;13829;48.990;8.346;2022-08-02T15:21:09;29.30;60.60
5055;DHT22;13829;48.990;8.346;2022-08-02T15:23:36;29.30;59.00
5055;DHT22;13829;48.990;8.346;2022-08-02T15:26:04;29.30;60.20
5055;DHT22;13829;48.990;8.346;2022-08-02T15:28:32;29.30;60.70
5055;DHT22;13829;48.990;8.346;2022-08-02T15:30:59;29.30;60.40
5055;DHT22;13829;48.990;8.346;2022-08-02T15:33:26;29.40;59.70
5055;DHT22;13829;48.990;8.346;2022-08-02T15:35:53;29.40;59.50
5055;DHT22;13829;48.990;8.346;2022-08-02T15:38:21;29.40;60.20
5055;DHT22;13829;48.990;8.346;2022-08-02T15:40:48;29.40;59.40
5055;DHT22;13829;48.990;8.346;2022-08-02T15:43:15;29.30;60.90
5055;DHT22;13829;48.990;8.346;2022-08-02T15:45:42;29.40;59.40
5055;DHT22;13829;48.990;8.346;2022-08-02T15:48:09;29.50;59.20
5055;DHT22;13829;48.990;8.346;2022-08-02T15:50:37;29.50;59.10
5055;DHT22;13829;48.990;8.346;2022-08-02T15:53:05;29.60;58.50
5055;DHT22;13829;48.990;8.346;2022-08-02T15:55:33;29.50;59.20
5055;DHT22;13829;48.990;8.346;2022-08-02T15:58:00;29.50;59.10
5055;DHT22;13829;48.990;8.346;2022-08-02T16:00:28;29.40;59.00
5055;DHT22;13829;48.990;8.346;2022-08-02T16:02:55;29.40;58.80
5055;DHT22;13829;48.990;8.346;2022-08-02T16:05:22;29.40;59.00